ASN logo
Last updated: 17 October 2018
Status:Preliminary
Date:Tuesday 22 May 2018
Time:11:17
Type:Silhouette image of generic GALX model; specific model in this crash may look slightly different
Gulfstream G200 Galaxy
Operator:private
Registration: N813WM
C/n / msn: 054
First flight: 2001
Engines: 2 Pratt & Whitney Canada PW306A
Crew:Fatalities: 0 / Occupants: 2
Passengers:Fatalities: 0 / Occupants: 4
Total:Fatalities: 0 / Occupants: 6
Aircraft damage: Damaged beyond repair
Location:Tegucigalpa-Toncontin Airport (TGU) (   Honduras)
Phase: Landing (LDG)
Nature:Unknown
Departure airport:Austin-Bergstrom International Airport, TX (AUS/KAUS), United States of America
Destination airport:Tegucigalpa-Toncontin Airport (TGU/MHTG), Honduras
Narrative:
A Gulfstream G200 Galaxy corporate jet suffered a runway excursion after landing on runway 02 at Tegucigalpa-Toncontin Airport, Honduras. The aircraft went down a slope and came to rest across a road. The fuselage broke in two, immediately forward of the wing.

Classification:
Runway excursion

Sources:
» diez.hn

METAR Weather report:
17:00 UTC / 11:00 local time:
MHTG 221700Z 00000KT 9999 SCT026 BKN250 27/17 Q1016 A3000 NOSIG

17:25 UTC / 11:25 local time:
MHTG 221725Z 30004KT 9999 SCT028TCU BKN250 27/16 Q1016 A3000


Photos

photo of Gulfstream G200 Galaxy N813WM
photo of Gulfstream G200 Galaxy N813WM
Add your photo of this accident or aircraft
 

Video, social media

Map
This map shows the airport of departure and the intended destination of the flight. The line between the airports does not display the exact flight path.
Distance from Austin-Bergstrom International Airport, TX to Tegucigalpa-Toncontin Airport as the crow flies is 2076 km (1298 miles).

This information is not presented as the Flight Safety Foundation or the Aviation Safety Network’s opinion as to the cause of the accident. It is preliminary and is based on the facts as they are known at this time.
languages: languages

Share